createdAt,value
2019-02-16T00:01:20.785Z,9.80
2019-02-16T00:03:48.079Z,10.23
2019-02-16T00:06:14.992Z,10.77
2019-02-16T00:08:42.027Z,10.97
2019-02-16T00:11:09.073Z,11.10
2019-02-16T00:13:36.129Z,10.27
2019-02-16T00:16:03.131Z,10.37
2019-02-16T00:18:30.219Z,11.10
2019-02-16T00:21:03.698Z,12.87
2019-02-16T00:23:24.828Z,10.60
2019-02-16T00:25:51.883Z,13.47
2019-02-16T00:28:18.926Z,12.70
2019-02-16T00:30:46.238Z,13.07
2019-02-16T00:33:13.228Z,13.83
2019-02-16T00:35:40.276Z,12.27
2019-02-16T00:38:07.331Z,14.77
2019-02-16T00:40:34.373Z,13.87
2019-02-16T00:43:01.328Z,12.53
2019-02-16T00:45:28.368Z,12.10
2019-02-16T00:47:55.417Z,13.70
2019-02-16T00:50:22.473Z,13.67
2019-02-16T00:52:51.358Z,7.90
2019-02-16T00:55:18.405Z,10.50
2019-02-16T00:57:47.304Z,12.33
2019-02-16T01:00:14.453Z,11.17
2019-02-16T01:02:41.498Z,11.27
2019-02-16T01:05:08.545Z,12.07
2019-02-16T01:07:35.598Z,12.97
2019-02-16T01:10:02.643Z,11.67
2019-02-16T01:12:29.805Z,11.23
2019-02-16T01:14:56.898Z,11.67
2019-02-16T01:17:23.895Z,10.80
2019-02-16T01:19:51.605Z,10.33
2019-02-16T01:22:27.414Z,10.73
2019-02-16T01:24:54.458Z,11.20
2019-02-16T01:27:22.027Z,9.97
2019-02-16T01:29:49.070Z,11.30
2019-02-16T01:32:16.859Z,10.70
2019-02-16T01:34:45.626Z,11.13
2019-02-16T01:37:12.674Z,11.07
2019-02-16T01:39:39.720Z,11.60
2019-02-16T01:42:06.774Z,13.37
2019-02-16T01:44:33.820Z,12.50
2019-02-16T01:47:00.863Z,11.13
2019-02-16T01:49:27.917Z,10.33
2019-02-16T01:51:54.932Z,11.70
2019-02-16T01:54:22.009Z,11.33
2019-02-16T01:56:49.062Z,13.23
2019-02-16T01:59:16.154Z,12.20
2019-02-16T02:01:43.671Z,12.17
2019-02-16T02:04:10.715Z,13.00
2019-02-16T02:06:37.763Z,13.43
2019-02-16T02:09:05.022Z,12.00
2019-02-16T02:11:32.065Z,13.27
2019-02-16T02:13:59.121Z,11.93
2019-02-16T02:16:26.162Z,10.97
2019-02-16T02:18:53.210Z,12.83
2019-02-16T02:21:20.207Z,12.60
2019-02-16T02:23:47.522Z,12.63
2019-02-16T02:26:14.464Z,12.17
2019-02-16T02:28:41.508Z,12.23
2019-02-16T02:31:08.562Z,10.03
2019-02-16T02:33:35.605Z,10.50
2019-02-16T02:36:03.064Z,9.80
2019-02-16T02:38:30.110Z,11.00
2019-02-16T02:40:57.166Z,10.07
2019-02-16T02:43:26.159Z,10.10
2019-02-16T02:45:53.201Z,9.87
2019-02-16T02:48:20.769Z,10.00
2019-02-16T02:50:48.169Z,9.47
2019-02-16T02:53:15.177Z,10.80
2019-02-16T02:55:42.836Z,11.33
2019-02-16T02:58:09.987Z,11.30
2019-02-16T03:00:36.980Z,10.37
2019-02-16T03:03:04.079Z,9.67
2019-02-16T03:05:33.380Z,9.37
2019-02-16T03:08:00.854Z,9.50
2019-02-16T03:10:27.893Z,9.20
2019-02-16T03:12:55.706Z,10.80
2019-02-16T03:15:22.910Z,10.50
2019-02-16T03:17:49.958Z,10.13
2019-02-16T03:20:17.052Z,9.93
2019-02-16T03:22:49.792Z,9.23
2019-02-16T03:25:16.839Z,9.73
2019-02-16T03:27:44.815Z,9.53
2019-02-16T03:30:17.605Z,9.23
2019-02-16T03:32:50.695Z,8.60
2019-02-16T03:35:17.833Z,10.23
2019-02-16T03:37:59.761Z,9.83
2019-02-16T03:40:26.773Z,9.27
2019-02-16T03:42:54.692Z,8.60
2019-02-16T03:45:21.797Z,9.67
2019-02-16T03:47:48.846Z,9.77
2019-02-16T03:50:15.889Z,8.97
2019-02-16T03:52:42.882Z,9.33
2019-02-16T03:55:09.985Z,10.07
2019-02-16T03:57:37.109Z,9.33
2019-02-16T04:00:04.129Z,8.33
2019-02-16T04:02:31.261Z,7.93
2019-02-16T04:04:58.284Z,7.93
2019-02-16T04:07:25.284Z,8.80
2019-02-16T04:09:52.277Z,9.17
2019-02-16T04:12:19.326Z,8.17
2019-02-16T04:14:46.378Z,8.63
2019-02-16T04:17:13.424Z,8.60
2019-02-16T04:19:40.472Z,7.70
2019-02-16T04:22:07.527Z,8.43
2019-02-16T04:24:34.572Z,8.00
2019-02-16T04:27:01.619Z,7.87
2019-02-16T04:29:28.671Z,9.27
2019-02-16T04:31:55.822Z,8.77
2019-02-16T04:34:22.864Z,8.67
2019-02-16T04:36:49.915Z,9.10
2019-02-16T04:39:16.986Z,8.57
2019-02-16T04:41:44.121Z,7.83
2019-02-16T04:44:11.270Z,7.53
2019-02-16T04:46:38.299Z,8.93
2019-02-16T04:49:05.361Z,8.43
2019-02-16T04:54:05.602Z,7.47
2019-02-16T04:56:32.652Z,7.90
2019-02-16T04:58:59.654Z,8.40
2019-02-16T05:01:28.699Z,8.23
2019-02-16T05:03:56.273Z,7.53
2019-02-16T05:06:25.870Z,8.87
2019-02-16T05:08:52.915Z,8.50
2019-02-16T05:11:19.962Z,7.97
2019-02-16T05:13:47.130Z,7.47
2019-02-16T05:16:14.173Z,6.03
2019-02-16T05:18:41.211Z,7.20
2019-02-16T05:21:08.154Z,7.57
2019-02-16T05:23:35.206Z,7.23
2019-02-16T05:26:03.278Z,7.17
2019-02-16T05:28:30.320Z,8.00
2019-02-16T05:30:57.370Z,7.80
2019-02-16T05:33:24.425Z,7.30
2019-02-16T05:35:51.467Z,7.43
2019-02-16T05:38:18.515Z,6.87
2019-02-16T05:40:45.569Z,5.70
2019-02-16T05:43:12.612Z,6.70
2019-02-16T05:45:39.670Z,6.73
2019-02-16T05:48:06.816Z,7.00
2019-02-16T05:50:33.877Z,7.03
2019-02-16T05:53:00.924Z,6.70
2019-02-16T05:55:27.960Z,6.43
2019-02-16T05:57:55.012Z,7.33
2019-02-16T06:00:22.060Z,7.13
2019-02-16T06:02:49.103Z,6.47
2019-02-16T06:05:16.161Z,4.17
2019-02-16T06:07:43.209Z,2.30
2019-02-16T06:10:10.468Z,6.20
2019-02-16T06:12:37.707Z,5.43
2019-02-16T06:15:04.762Z,6.30
2019-02-16T06:17:33.339Z,6.00
2019-02-16T06:20:00.404Z,2.70
2019-02-16T06:22:27.846Z,4.13
2019-02-16T06:24:56.744Z,5.10
2019-02-16T06:27:23.786Z,5.57
2019-02-16T06:29:50.937Z,5.67
2019-02-16T06:32:19.117Z,5.80
2019-02-16T06:34:46.214Z,4.07
2019-02-16T06:37:19.562Z,4.60
2019-02-16T06:39:47.021Z,5.10
2019-02-16T06:42:14.016Z,4.40
2019-02-16T06:44:41.729Z,4.97
2019-02-16T06:47:08.741Z,12.43
2019-02-16T06:49:35.839Z,8.27
2019-02-16T06:52:04.409Z,5.60
2019-02-16T06:54:31.463Z,4.57
2019-02-16T06:57:00.456Z,4.50
2019-02-16T06:59:27.560Z,5.47
2019-02-16T07:01:54.759Z,5.23
2019-02-16T07:04:21.802Z,5.30
2019-02-16T07:06:48.850Z,5.60
2019-02-16T07:09:15.912Z,4.13
2019-02-16T07:11:42.964Z,4.43
2019-02-16T07:14:12.768Z,4.03
2019-02-16T07:16:46.060Z,5.20
2019-02-16T07:19:16.898Z,4.03
2019-02-16T07:21:43.948Z,4.53
2019-02-16T07:24:10.972Z,4.60
2019-02-16T07:26:38.042Z,4.70
2019-02-16T07:29:05.105Z,5.57
2019-02-16T07:31:32.647Z,4.40
2019-02-16T07:33:59.705Z,5.80
2019-02-16T07:36:26.751Z,4.10
2019-02-16T07:38:53.793Z,3.20
2019-02-16T07:41:20.860Z,4.23
2019-02-16T07:44:02.791Z,5.17
2019-02-16T07:46:45.561Z,5.50
2019-02-16T07:49:14.652Z,5.23
2019-02-16T07:51:59.232Z,6.53
2019-02-16T07:54:26.368Z,5.40
2019-02-16T07:56:55.362Z,4.93
2019-02-16T07:59:25.068Z,5.73
2019-02-16T08:01:53.756Z,4.87
2019-02-16T08:04:22.651Z,5.60
2019-02-16T08:06:55.075Z,13.63
2019-02-16T08:09:36.099Z,10.00
2019-02-16T08:12:08.777Z,5.40
2019-02-16T08:14:41.868Z,13.13
2019-02-16T08:17:09.844Z,7.03
2019-02-16T08:19:37.709Z,7.30
2019-02-16T08:22:04.856Z,10.70
2019-02-16T08:24:35.765Z,5.07
2019-02-16T08:27:02.955Z,4.80
2019-02-16T08:29:35.942Z,4.63
2019-02-16T08:32:05.033Z,4.67
2019-02-16T08:34:32.189Z,6.10
2019-02-16T08:37:02.101Z,11.20
2019-02-16T08:39:45.945Z,9.37
2019-02-16T08:42:18.829Z,5.60
2019-02-16T08:44:45.982Z,5.40
2019-02-16T08:47:18.984Z,7.63
2019-02-16T08:49:55.946Z,14.30
2019-02-16T08:52:29.159Z,11.30
2019-02-16T08:55:01.964Z,9.13
2019-02-16T08:57:44.131Z,10.60
2019-02-16T09:00:16.927Z,7.47
2019-02-16T09:02:47.521Z,6.27
2019-02-16T09:05:15.410Z,5.90
2019-02-16T09:07:43.078Z,5.73
2019-02-16T09:10:10.942Z,4.63
2019-02-16T09:12:40.764Z,5.27
2019-02-16T09:15:13.599Z,1.27
2019-02-16T09:17:41.536Z,1.63
2019-02-16T09:20:15.638Z,3.97
2019-02-16T09:22:58.840Z,5.60
2019-02-16T09:25:40.753Z,4.27
2019-02-16T09:28:11.176Z,5.43
2019-02-16T09:30:39.249Z,6.00
2019-02-16T09:33:08.445Z,6.47
2019-02-16T09:35:41.663Z,6.13
2019-02-16T09:38:11.460Z,6.83
2019-02-16T09:40:53.731Z,7.47
2019-02-16T09:43:22.758Z,7.07
2019-02-16T09:45:50.928Z,6.80
2019-02-16T09:48:21.931Z,7.47
2019-02-16T09:50:50.047Z,7.10
2019-02-16T09:53:19.144Z,7.60
2019-02-16T09:55:50.492Z,7.87
2019-02-16T09:58:32.328Z,8.03
2019-02-16T10:01:10.243Z,8.20
2019-02-16T10:03:37.405Z,7.93
2019-02-16T10:06:20.106Z,7.83
2019-02-16T10:08:48.950Z,7.67
2019-02-16T10:11:22.964Z,8.13
2019-02-16T10:14:07.928Z,8.47
2019-02-16T10:16:51.899Z,7.93
2019-02-16T10:19:33.920Z,8.30
2019-02-16T10:22:04.738Z,8.00
2019-02-16T10:24:38.308Z,8.33
2019-02-16T10:27:07.973Z,8.10
2019-02-16T10:29:40.085Z,9.00
2019-02-16T10:32:08.286Z,8.20
2019-02-16T10:34:41.121Z,8.93
2019-02-16T10:37:10.756Z,8.63
2019-02-16T10:39:38.724Z,8.60
2019-02-16T10:42:12.663Z,9.00
2019-02-16T10:44:41.730Z,8.97
2019-02-16T10:47:14.614Z,8.57
2019-02-16T10:49:49.150Z,8.70
2019-02-16T10:52:22.085Z,8.50
2019-02-16T10:54:51.123Z,9.20
2019-02-16T10:57:23.918Z,8.03
2019-02-16T10:59:52.214Z,9.10
2019-02-16T11:02:19.900Z,8.83
2019-02-16T11:04:47.814Z,9.20
2019-02-16T11:07:17.322Z,10.30
2019-02-16T11:09:42.934Z,10.07
2019-02-16T11:12:16.940Z,9.30
2019-02-16T11:14:45.137Z,11.20
2019-02-16T11:17:13.200Z,9.30
2019-02-16T11:19:57.861Z,11.27
2019-02-16T11:22:35.710Z,11.53
2019-02-16T11:25:07.929Z,12.27
2019-02-16T11:27:35.598Z,11.87
2019-02-16T11:30:08.375Z,13.20
2019-02-16T11:32:38.904Z,12.30
2019-02-16T11:35:20.858Z,8.53
2019-02-16T11:37:53.692Z,10.00
2019-02-16T11:40:23.380Z,11.60
2019-02-16T11:42:59.458Z,10.63
2019-02-16T11:45:33.182Z,12.80
2019-02-16T11:48:15.367Z,12.50
2019-02-16T11:50:48.559Z,13.43
2019-02-16T11:53:33.529Z,8.50
2019-02-16T11:56:02.628Z,8.47
2019-02-16T11:58:30.750Z,10.27
2019-02-16T12:00:57.958Z,13.23
2019-02-16T12:03:35.373Z,12.40
2019-02-16T12:06:03.415Z,9.37
2019-02-16T12:08:45.849Z,10.77
2019-02-16T12:11:12.981Z,13.03
2019-02-16T12:13:45.662Z,13.10
2019-02-16T12:16:18.565Z,9.90
2019-02-16T12:19:01.257Z,10.60
2019-02-16T12:21:33.937Z,12.95
2019-02-16T12:24:19.521Z,12.47
2019-02-16T12:27:00.802Z,12.60
2019-02-16T12:29:33.845Z,14.10
2019-02-16T12:32:02.801Z,10.80
2019-02-16T12:34:35.998Z,12.37
2019-02-16T12:37:03.908Z,14.13
2019-02-16T12:39:33.761Z,13.77
2019-02-16T12:42:06.545Z,14.13
2019-02-16T12:44:48.441Z,14.07
2019-02-16T12:47:15.900Z,15.00
2019-02-16T12:49:45.922Z,14.43
2019-02-16T12:52:13.074Z,16.60
2019-02-16T12:54:43.299Z,9.60
2019-02-16T12:57:13.015Z,14.57
2019-02-16T12:59:45.994Z,13.60
2019-02-16T13:02:15.909Z,14.82
2019-02-16T13:04:45.929Z,13.82
2019-02-16T13:07:19.192Z,15.25
2019-02-16T13:09:48.731Z,12.93
2019-02-16T13:12:22.342Z,13.85
2019-02-16T13:15:03.000Z,13.23
2019-02-16T13:17:35.358Z,14.38
2019-02-16T13:20:03.919Z,15.52
2019-02-16T13:22:33.665Z,15.23
2019-02-16T13:25:11.568Z,14.95
2019-02-16T13:27:55.519Z,14.57
2019-02-16T13:30:37.374Z,14.57
2019-02-16T13:33:21.253Z,15.23
2019-02-16T13:36:03.151Z,14.80
2019-02-16T13:38:46.160Z,15.88
2019-02-16T13:41:28.074Z,14.93
2019-02-16T13:44:10.892Z,16.05
2019-02-16T13:46:42.750Z,15.73
2019-02-16T13:49:09.906Z,15.93
2019-02-16T13:51:44.304Z,19.67
2019-02-16T13:54:13.521Z,16.77
2019-02-16T13:56:44.457Z,18.35
2019-02-16T13:59:13.249Z,17.23
2019-02-16T14:01:42.866Z,13.43
2019-02-16T14:04:19.795Z,14.73
2019-02-16T14:06:49.551Z,13.23
2019-02-16T14:09:20.460Z,14.87
2019-02-16T14:11:59.321Z,15.52
2019-02-16T14:14:30.260Z,14.50
2019-02-16T14:17:13.176Z,15.30
2019-02-16T14:19:40.839Z,15.48
2019-02-16T14:22:07.892Z,14.90
2019-02-16T14:24:38.730Z,15.60
2019-02-16T14:27:05.774Z,14.60
2019-02-16T14:29:32.822Z,15.35
2019-02-16T14:31:59.876Z,15.88
2019-02-16T14:34:26.920Z,15.68
2019-02-16T14:36:53.967Z,18.12
2019-02-16T14:39:21.022Z,15.15
2019-02-16T14:41:48.064Z,33.10
2019-02-16T14:44:15.074Z,20.33
2019-02-16T14:46:42.017Z,15.63
2019-02-16T14:49:09.013Z,15.55
2019-02-16T14:51:36.054Z,15.75
2019-02-16T14:54:03.205Z,15.98
2019-02-16T14:56:30.463Z,16.87
2019-02-16T14:58:57.529Z,15.38
2019-02-16T15:01:25.480Z,13.82
2019-02-16T15:03:52.639Z,15.68
2019-02-16T15:06:19.683Z,15.45
2019-02-16T15:08:50.336Z,15.20
2019-02-16T15:11:18.917Z,14.93
2019-02-16T15:13:46.051Z,15.55
2019-02-16T15:16:13.095Z,16.83
2019-02-16T15:18:40.105Z,15.45
2019-02-16T15:21:07.197Z,16.77
2019-02-16T15:23:34.318Z,15.65
2019-02-16T15:26:01.566Z,15.30
2019-02-16T15:28:28.702Z,16.23
2019-02-16T15:30:55.906Z,16.60
2019-02-16T15:33:22.957Z,15.82
2019-02-16T15:35:50.049Z,15.82
2019-02-16T15:38:17.116Z,16.20
2019-02-16T15:40:44.502Z,16.52
2019-02-16T15:43:11.663Z,16.90
2019-02-16T15:45:38.823Z,18.08
2019-02-16T15:48:05.870Z,17.00
2019-02-16T15:50:34.544Z,16.65
2019-02-16T15:53:01.600Z,18.37
2019-02-16T15:55:28.847Z,16.77
2019-02-16T15:57:55.908Z,19.33
2019-02-16T16:00:23.054Z,17.80
2019-02-16T16:02:50.302Z,19.17
2019-02-16T16:05:17.457Z,22.35
2019-02-16T16:07:44.572Z,19.27
2019-02-16T16:10:21.585Z,19.30
2019-02-16T16:12:58.569Z,18.77
2019-02-16T16:15:26.648Z,17.42
2019-02-16T16:18:03.631Z,17.70
2019-02-16T16:20:41.414Z,18.15
2019-02-16T16:23:17.374Z,17.20
2019-02-16T16:25:50.263Z,17.75
2019-02-16T16:28:19.872Z,19.27
2019-02-16T16:30:50.730Z,20.25
2019-02-16T16:33:20.475Z,19.05
2019-02-16T16:36:02.418Z,19.10
2019-02-16T16:38:32.336Z,19.33
2019-02-16T16:41:01.324Z,19.07
2019-02-16T16:43:28.476Z,18.83
2019-02-16T16:46:01.267Z,19.37
2019-02-16T16:48:33.027Z,23.87
2019-02-16T16:51:03.197Z,27.40
2019-02-16T16:53:30.499Z,24.13
2019-02-16T16:56:01.638Z,21.50
2019-02-16T16:58:48.451Z,19.33
2019-02-16T17:01:30.655Z,19.67
2019-02-16T17:03:59.341Z,19.87
2019-02-16T17:06:27.115Z,22.37
2019-02-16T17:08:59.897Z,18.97
2019-02-16T17:11:32.678Z,21.40
2019-02-16T17:14:02.077Z,20.63
2019-02-16T17:16:35.371Z,21.90
2019-02-16T17:19:36.875Z,21.53
2019-02-16T17:22:24.990Z,20.60
2019-02-16T17:25:17.603Z,19.87
2019-02-16T17:28:01.534Z,22.17
2019-02-16T17:30:30.473Z,20.27
2019-02-16T17:33:16.551Z,19.67
2019-02-16T17:35:44.478Z,20.07
2019-02-16T17:38:16.400Z,23.67
2019-02-16T17:40:48.660Z,22.20
2019-02-16T17:43:32.495Z,20.93
2019-02-16T17:46:00.679Z,23.00
2019-02-16T17:48:28.743Z,26.13
2019-02-16T17:51:07.677Z,25.83
2019-02-16T17:53:34.721Z,26.80
2019-02-16T17:56:16.728Z,27.57
2019-02-16T17:58:46.540Z,27.23
2019-02-16T18:01:18.497Z,31.97
2019-02-16T18:03:46.524Z,32.33
2019-02-16T18:06:16.181Z,28.90
2019-02-16T18:08:58.435Z,31.20
2019-02-16T18:11:40.895Z,26.40
2019-02-16T18:14:08.968Z,25.03
2019-02-16T18:16:39.904Z,24.43
2019-02-16T18:19:22.015Z,32.70
2019-02-16T18:21:51.924Z,27.77
2019-02-16T18:24:23.081Z,34.53
2019-02-16T18:27:01.897Z,31.80
2019-02-16T18:29:29.967Z,28.10
2019-02-16T18:32:07.356Z,29.40
2019-02-16T18:34:40.334Z,24.57
2019-02-16T18:37:08.723Z,24.13
2019-02-16T18:39:37.401Z,20.87
2019-02-16T18:42:19.802Z,24.50
2019-02-16T18:44:46.883Z,26.93
2019-02-16T18:47:30.922Z,27.37
2019-02-16T18:50:03.601Z,23.77
2019-02-16T18:52:46.429Z,24.33
2019-02-16T18:55:15.424Z,23.00
2019-02-16T18:57:46.020Z,24.00
2019-02-16T19:00:15.774Z,24.97
2019-02-16T19:02:47.322Z,23.37
2019-02-16T19:05:14.463Z,23.57
2019-02-16T19:07:54.310Z,23.43
2019-02-16T19:10:27.299Z,23.30
2019-02-16T19:12:57.482Z,25.23
2019-02-16T19:15:25.141Z,25.80
2019-02-16T19:17:52.285Z,25.37
2019-02-16T19:20:38.074Z,23.83
2019-02-16T19:23:24.948Z,23.93
2019-02-16T19:25:56.547Z,27.57
2019-02-16T19:28:28.504Z,29.47
2019-02-16T19:31:00.574Z,28.30
2019-02-16T19:33:34.335Z,30.03
2019-02-16T19:36:02.142Z,35.90
2019-02-16T19:38:32.890Z,36.23
2019-02-16T19:41:10.268Z,32.30
2019-02-16T19:43:53.087Z,35.37
2019-02-16T19:46:27.918Z,32.43
2019-02-16T19:49:12.676Z,36.70
2019-02-16T19:51:44.097Z,40.27
2019-02-16T19:54:17.233Z,37.37
2019-02-16T19:56:55.132Z,27.67
2019-02-16T19:59:24.018Z,27.97
2019-02-16T20:02:09.806Z,27.77
2019-02-16T20:04:54.063Z,23.97
2019-02-16T20:07:36.058Z,24.37
2019-02-16T20:10:11.616Z,23.90
2019-02-16T20:12:44.916Z,18.67
2019-02-16T20:15:26.905Z,18.80
2019-02-16T20:17:54.268Z,18.93
2019-02-16T20:20:25.092Z,23.40
2019-02-16T20:22:52.143Z,22.03
2019-02-16T20:25:20.012Z,22.27
2019-02-16T20:28:02.828Z,22.23
2019-02-16T20:30:37.351Z,22.30
2019-02-16T20:33:04.609Z,22.33
2019-02-16T20:35:43.034Z,23.03
2019-02-16T20:38:16.598Z,24.33
2019-02-16T20:41:01.660Z,23.27
2019-02-16T20:43:33.360Z,18.37
2019-02-16T20:46:13.510Z,18.97
2019-02-16T20:48:58.887Z,19.80
2019-02-16T20:51:27.673Z,20.33
2019-02-16T20:54:00.557Z,15.20
2019-02-16T20:56:27.812Z,17.40
2019-02-16T20:59:09.616Z,20.97
2019-02-16T21:01:38.307Z,12.50
2019-02-16T21:04:13.026Z,15.43
2019-02-16T21:06:50.319Z,14.10
2019-02-16T21:09:19.410Z,18.73
2019-02-16T21:11:49.225Z,15.43
2019-02-16T21:14:21.956Z,12.30
2019-02-16T21:16:49.158Z,13.70
2019-02-16T21:19:21.945Z,17.27
2019-02-16T21:22:04.704Z,19.43
2019-02-16T21:24:31.804Z,19.30
2019-02-16T21:27:01.515Z,15.30
2019-02-16T21:29:33.480Z,16.27
2019-02-16T21:32:02.685Z,12.10
2019-02-16T21:34:46.426Z,10.30
2019-02-16T21:37:17.006Z,12.13
2019-02-16T21:39:44.919Z,12.73
2019-02-16T21:42:17.861Z,14.13
2019-02-16T21:44:54.996Z,14.50
2019-02-16T21:47:37.714Z,15.83
2019-02-16T21:50:07.520Z,15.53
2019-02-16T21:52:38.473Z,19.27
2019-02-16T21:55:20.357Z,17.67
2019-02-16T21:57:48.121Z,17.10
2019-02-16T22:00:21.110Z,19.30
2019-02-16T22:03:03.007Z,19.07
2019-02-16T22:05:39.993Z,20.03
2019-02-16T22:08:09.806Z,21.17
2019-02-16T22:10:47.502Z,21.93
2019-02-16T22:13:17.018Z,23.03
2019-02-16T22:15:44.066Z,22.13
2019-02-16T22:18:11.211Z,22.57
2019-02-16T22:20:38.253Z,32.73
2019-02-16T22:23:05.302Z,28.67
2019-02-16T22:25:32.364Z,25.27
2019-02-16T22:28:02.598Z,25.93
2019-02-16T22:30:29.624Z,27.63
2019-02-16T22:32:59.765Z,24.13
2019-02-16T22:35:28.737Z,22.83
2019-02-16T22:37:55.791Z,28.17
2019-02-16T22:40:22.834Z,21.37
2019-02-16T22:42:49.837Z,27.60
2019-02-16T22:45:16.939Z,21.97
2019-02-16T22:47:44.087Z,24.23
2019-02-16T22:50:11.129Z,22.33
2019-02-16T22:52:38.139Z,23.77
2019-02-16T22:55:05.328Z,24.13
2019-02-16T22:57:32.383Z,33.77
2019-02-16T22:59:59.428Z,33.47
2019-02-16T23:02:26.474Z,28.50
2019-02-16T23:04:54.921Z,23.90
2019-02-16T23:07:22.167Z,24.13
2019-02-16T23:09:49.260Z,25.37
2019-02-16T23:12:16.211Z,22.43
2019-02-16T23:14:43.255Z,21.53
2019-02-16T23:17:10.404Z,22.63
2019-02-16T23:19:37.452Z,23.50
2019-02-16T23:22:06.003Z,19.93
2019-02-16T23:27:30.661Z,21.30
2019-02-16T23:29:57.645Z,21.40
2019-02-16T23:32:24.645Z,23.37
2019-02-16T23:34:51.694Z,23.50
2019-02-16T23:37:18.747Z,22.53
2019-02-16T23:39:45.803Z,20.53
2019-02-16T23:42:12.798Z,21.93
2019-02-16T23:44:39.786Z,19.63
2019-02-16T23:47:10.424Z,21.93
2019-02-16T23:49:37.468Z,19.80
2019-02-16T23:52:07.436Z,19.10
2019-02-16T23:54:37.919Z,21.43
2019-02-16T23:57:05.633Z,22.00
2019-02-16T23:59:34.336Z,21.17
